sensor_id;sensor_type;location;lat;lon;timestamp;pressure;altitude;pressure_sealevel;temperature;humidity
61573;BME280;47465;43.094;12.434;2023-03-14T00:01:21;98507.03;;;10.80;91.61
61573;BME280;47465;43.094;12.434;2023-03-14T00:03:50;98516.78;;;10.80;92.34
61573;BME280;47465;43.094;12.434;2023-03-14T00:06:16;98506.25;;;10.77;92.53
61573;BME280;47465;43.094;12.434;2023-03-14T00:08:43;98520.34;;;10.80;92.84
61573;BME280;47465;43.094;12.434;2023-03-14T00:11:12;98501.47;;;10.60;92.97
61573;BME280;47465;43.094;12.434;2023-03-14T00:13:38;98492.13;;;10.46;94.39
61573;BME280;47465;43.094;12.434;2023-03-14T00:16:06;98493.25;;;10.39;94.73
61573;BME280;47465;43.094;12.434;2023-03-14T00:18:33;98494.97;;;10.40;96.54
61573;BME280;47465;43.094;12.434;2023-03-14T00:21:03;98475.81;;;10.31;96.83
61573;BME280;47465;43.094;12.434;2023-03-14T00:23:30;98468.09;;;10.21;97.14
61573;BME280;47465;43.094;12.434;2023-03-14T00:25:58;98468.28;;;10.15;98.60
61573;BME280;47465;43.094;12.434;2023-03-14T00:28:25;98499.91;;;10.23;99.61
61573;BME280;47465;43.094;12.434;2023-03-14T00:30:51;98462.63;;;9.96;100.00
61573;BME280;47465;43.094;12.434;2023-03-14T00:33:16;98479.28;;;10.01;100.00
61573;BME280;47465;43.094;12.434;2023-03-14T00:35:42;98475.28;;;9.86;100.00
61573;BME280;47465;43.094;12.434;2023-03-14T00:38:10;98474.28;;;9.91;100.00
61573;BME280;47465;43.094;12.434;2023-03-14T00:40:38;98445.69;;;9.69;100.00
61573;BME280;47465;43.094;12.434;2023-03-14T00:43:04;98425.25;;;9.73;100.00
61573;BME280;47465;43.094;12.434;2023-03-14T00:45:30;98451.19;;;9.94;100.00
61573;BME280;47465;43.094;12.434;2023-03-14T00:47:56;98430.28;;;9.82;100.00
61573;BME280;47465;43.094;12.434;2023-03-14T00:50:22;98424.25;;;9.77;100.00
61573;BME280;47465;43.094;12.434;2023-03-14T00:52:48;98430.22;;;9.85;100.00
61573;BME280;47465;43.094;12.434;2023-03-14T00:55:15;98423.34;;;10.06;100.00
61573;BME280;47465;43.094;12.434;2023-03-14T00:57:41;98431.75;;;10.22;100.00
61573;BME280;47465;43.094;12.434;2023-03-14T01:00:08;98414.19;;;10.16;100.00
61573;BME280;47465;43.094;12.434;2023-03-14T01:02:37;98411.56;;;10.15;100.00
61573;BME280;47465;43.094;12.434;2023-03-14T01:05:03;98388.81;;;10.06;100.00
61573;BME280;47465;43.094;12.434;2023-03-14T01:07:29;98402.84;;;10.11;100.00
61573;BME280;47465;43.094;12.434;2023-03-14T01:09:55;98375.88;;;9.95;100.00
61573;BME280;47465;43.094;12.434;2023-03-14T01:12:23;98377.66;;;9.95;100.00
61573;BME280;47465;43.094;12.434;2023-03-14T01:14:49;98404.50;;;10.15;100.00
61573;BME280;47465;43.094;12.434;2023-03-14T01:17:14;98374.97;;;9.96;100.00
61573;BME280;47465;43.094;12.434;2023-03-14T01:19:40;98381.16;;;9.97;100.00
61573;BME280;47465;43.094;12.434;2023-03-14T01:22:06;98400.34;;;10.06;100.00
61573;BME280;47465;43.094;12.434;2023-03-14T01:24:32;98395.94;;;10.05;100.00
61573;BME280;47465;43.094;12.434;2023-03-14T01:26:59;98366.28;;;9.91;100.00
61573;BME280;47465;43.094;12.434;2023-03-14T01:29:27;98357.50;;;9.89;100.00
61573;BME280;47465;43.094;12.434;2023-03-14T01:31:52;98338.97;;;9.86;100.00
61573;BME280;47465;43.094;12.434;2023-03-14T01:34:18;98324.06;;;9.82;100.00
61573;BME280;47465;43.094;12.434;2023-03-14T01:36:44;98359.00;;;9.98;100.00
61573;BME280;47465;43.094;12.434;2023-03-14T01:39:10;98337.81;;;9.95;100.00
61573;BME280;47465;43.094;12.434;2023-03-14T01:41:36;98323.56;;;9.97;100.00
61573;BME280;47465;43.094;12.434;2023-03-14T01:44:02;98312.28;;;9.91;100.00
61573;BME280;47465;43.094;12.434;2023-03-14T01:46:33;98308.72;;;9.92;100.00
61573;BME280;47465;43.094;12.434;2023-03-14T01:49:07;98314.69;;;9.98;100.00
61573;BME280;47465;43.094;12.434;2023-03-14T01:51:38;98318.13;;;10.02;100.00
61573;BME280;47465;43.094;12.434;2023-03-14T01:54:10;98302.91;;;10.07;100.00
61573;BME280;47465;43.094;12.434;2023-03-14T01:56:38;98292.78;;;10.18;100.00
61573;BME280;47465;43.094;12.434;2023-03-14T01:59:06;98282.31;;;10.14;100.00
61573;BME280;47465;43.094;12.434;2023-03-14T02:01:35;98278.72;;;10.15;100.00
61573;BME280;47465;43.094;12.434;2023-03-14T02:04:04;98254.13;;;10.10;100.00
61573;BME280;47465;43.094;12.434;2023-03-14T02:06:35;98257.59;;;10.12;100.00
61573;BME280;47465;43.094;12.434;2023-03-14T02:09:04;98243.44;;;10.11;100.00
61573;BME280;47465;43.094;12.434;2023-03-14T02:11:30;98262.69;;;10.18;100.00
61573;BME280;47465;43.094;12.434;2023-03-14T02:13:58;98252.28;;;10.12;100.00
61573;BME280;47465;43.094;12.434;2023-03-14T02:16:25;98252.97;;;10.17;100.00
61573;BME280;47465;43.094;12.434;2023-03-14T02:18:52;98263.38;;;10.24;100.00
61573;BME280;47465;43.094;12.434;2023-03-14T02:21:22;98245.81;;;10.19;100.00
61573;BME280;47465;43.094;12.434;2023-03-14T02:23:54;98233.63;;;10.13;100.00
61573;BME280;47465;43.094;12.434;2023-03-14T02:26:25;98200.38;;;10.01;100.00
61573;BME280;47465;43.094;12.434;2023-03-14T02:28:54;98231.63;;;10.20;100.00
61573;BME280;47465;43.094;12.434;2023-03-14T02:31:22;98199.31;;;10.07;100.00
61573;BME280;47465;43.094;12.434;2023-03-14T02:33:49;98181.56;;;10.07;100.00
61573;BME280;47465;43.094;12.434;2023-03-14T02:36:16;98185.16;;;10.06;100.00
61573;BME280;47465;43.094;12.434;2023-03-14T02:38:47;98189.53;;;10.07;100.00
61573;BME280;47465;43.094;12.434;2023-03-14T02:41:16;98180.75;;;10.05;100.00
61573;BME280;47465;43.094;12.434;2023-03-14T02:43:42;98189.44;;;10.11;100.00
61573;BME280;47465;43.094;12.434;2023-03-14T02:46:11;98184.22;;;10.07;100.00
61573;BME280;47465;43.094;12.434;2023-03-14T02:48:41;98175.72;;;9.98;100.00
61573;BME280;47465;43.094;12.434;2023-03-14T02:51:08;98183.69;;;9.98;100.00
61573;BME280;47465;43.094;12.434;2023-03-14T02:53:36;98180.38;;;9.91;100.00
61573;BME280;47465;43.094;12.434;2023-03-14T02:56:04;98170.03;;;9.82;100.00
61573;BME280;47465;43.094;12.434;2023-03-14T02:58:30;98181.28;;;9.90;100.00
61573;BME280;47465;43.094;12.434;2023-03-14T03:00:56;98151.72;;;9.74;100.00
61573;BME280;47465;43.094;12.434;2023-03-14T03:03:24;98143.91;;;9.70;100.00
61573;BME280;47465;43.094;12.434;2023-03-14T03:05:50;98175.25;;;9.85;100.00
61573;BME280;47465;43.094;12.434;2023-03-14T03:08:16;98141.66;;;9.57;100.00
61573;BME280;47465;43.094;12.434;2023-03-14T03:10:42;98151.47;;;9.55;100.00
61573;BME280;47465;43.094;12.434;2023-03-14T03:13:08;98123.59;;;9.42;100.00
61573;BME280;47465;43.094;12.434;2023-03-14T03:15:34;98112.88;;;9.45;100.00
61573;BME280;47465;43.094;12.434;2023-03-14T03:18:00;98113.81;;;9.44;100.00
61573;BME280;47465;43.094;12.434;2023-03-14T03:20:28;98135.41;;;9.58;100.00
61573;BME280;47465;43.094;12.434;2023-03-14T03:22:53;98112.31;;;9.35;100.00
61573;BME280;47465;43.094;12.434;2023-03-14T03:25:19;98115.97;;;9.31;100.00
61573;BME280;47465;43.094;12.434;2023-03-14T03:27:45;98106.53;;;9.22;100.00
61573;BME280;47465;43.094;12.434;2023-03-14T03:30:12;98095.00;;;9.23;100.00
61573;BME280;47465;43.094;12.434;2023-03-14T03:32:38;98111.72;;;9.25;100.00
61573;BME280;47465;43.094;12.434;2023-03-14T03:35:05;98111.34;;;9.38;100.00
61573;BME280;47465;43.094;12.434;2023-03-14T03:37:33;98098.06;;;9.38;100.00
61573;BME280;47465;43.094;12.434;2023-03-14T03:39:59;98110.94;;;9.50;100.00
61573;BME280;47465;43.094;12.434;2023-03-14T03:42:26;98078.56;;;9.39;100.00
61573;BME280;47465;43.094;12.434;2023-03-14T03:44:52;98073.38;;;9.36;100.00
61573;BME280;47465;43.094;12.434;2023-03-14T03:47:18;98097.72;;;9.49;nan
61573;BME280;47465;43.094;12.434;2023-03-14T03:49:44;98084.97;;;9.33;100.00
61573;BME280;47465;43.094;12.434;2023-03-14T03:52:10;98089.19;;;9.39;100.00
61573;BME280;47465;43.094;12.434;2023-03-14T03:54:37;98082.69;;;9.21;100.00
61573;BME280;47465;43.094;12.434;2023-03-14T03:57:03;98102.00;;;9.26;100.00
61573;BME280;47465;43.094;12.434;2023-03-14T03:59:29;98059.31;;;9.05;100.00
61573;BME280;47465;43.094;12.434;2023-03-14T04:01:55;98062.75;;;9.09;100.00
61573;BME280;47465;43.094;12.434;2023-03-14T04:04:21;98056.28;;;9.18;100.00
61573;BME280;47465;43.094;12.434;2023-03-14T04:06:47;98050.78;;;9.24;100.00
61573;BME280;47465;43.094;12.434;2023-03-14T04:09:14;98072.41;;;9.38;100.00
61573;BME280;47465;43.094;12.434;2023-03-14T04:11:41;98070.56;;;9.40;100.00
61573;BME280;47465;43.094;12.434;2023-03-14T04:14:07;98057.94;;;9.47;97.63
61573;BME280;47465;43.094;12.434;2023-03-14T04:16:33;98076.97;;;9.60;96.35
61573;BME280;47465;43.094;12.434;2023-03-14T04:18:59;98086.34;;;9.72;95.42
61573;BME280;47465;43.094;12.434;2023-03-14T04:21:25;98063.50;;;9.66;94.56
61573;BME280;47465;43.094;12.434;2023-03-14T04:23:51;98077.25;;;9.77;93.89
61573;BME280;47465;43.094;12.434;2023-03-14T04:26:17;98070.06;;;9.81;93.42
61573;BME280;47465;43.094;12.434;2023-03-14T04:28:45;98054.50;;;9.70;93.21
61573;BME280;47465;43.094;12.434;2023-03-14T04:31:15;98079.75;;;9.82;92.80
61573;BME280;47465;43.094;12.434;2023-03-14T04:33:42;98078.03;;;9.81;92.78
61573;BME280;47465;43.094;12.434;2023-03-14T04:36:09;98087.22;;;9.71;93.45
61573;BME280;47465;43.094;12.434;2023-03-14T04:38:35;98086.47;;;9.92;92.30
61573;BME280;47465;43.094;12.434;2023-03-14T04:41:02;98090.06;;;9.91;91.97
61573;BME280;47465;43.094;12.434;2023-03-14T04:43:29;98072.56;;;9.85;92.29
61573;BME280;47465;43.094;12.434;2023-03-14T04:45:57;98051.66;;;9.76;91.94
61573;BME280;47465;43.094;12.434;2023-03-14T04:48:23;98061.38;;;9.76;92.31
61573;BME280;47465;43.094;12.434;2023-03-14T04:50:50;98055.28;;;9.74;92.31
61573;BME280;47465;43.094;12.434;2023-03-14T04:53:17;98035.16;;;9.66;93.54
61573;BME280;47465;43.094;12.434;2023-03-14T04:55:47;98037.97;;;9.62;93.61
61573;BME280;47465;43.094;12.434;2023-03-14T04:58:13;98034.41;;;9.63;93.16
61573;BME280;47465;43.094;12.434;2023-03-14T05:00:39;98029.00;;;9.66;93.04
61573;BME280;47465;43.094;12.434;2023-03-14T05:03:07;98027.19;;;9.66;93.13
61573;BME280;47465;43.094;12.434;2023-03-14T05:05:33;98041.28;;;9.69;93.73
61573;BME280;47465;43.094;12.434;2023-03-14T05:07:59;98014.03;;;9.63;93.35
61573;BME280;47465;43.094;12.434;2023-03-14T05:10:25;98033.75;;;9.81;92.51
61573;BME280;47465;43.094;12.434;2023-03-14T05:12:51;98037.59;;;9.98;91.39
61573;BME280;47465;43.094;12.434;2023-03-14T05:15:17;98023.34;;;10.00;90.07
61573;BME280;47465;43.094;12.434;2023-03-14T05:17:43;98031.94;;;10.07;89.70
61573;BME280;47465;43.094;12.434;2023-03-14T05:20:11;98042.41;;;10.12;89.56
61573;BME280;47465;43.094;12.434;2023-03-14T05:22:40;98025.44;;;10.16;87.20
61573;BME280;47465;43.094;12.434;2023-03-14T05:25:07;98054.22;;;10.28;87.37
61573;BME280;47465;43.094;12.434;2023-03-14T05:27:33;98034.06;;;10.21;87.55
61573;BME280;47465;43.094;12.434;2023-03-14T05:30:00;98036.69;;;10.22;87.03
61573;BME280;47465;43.094;12.434;2023-03-14T05:32:27;98058.38;;;10.35;87.29
61573;BME280;47465;43.094;12.434;2023-03-14T05:34:53;98047.13;;;10.27;87.04
61573;BME280;47465;43.094;12.434;2023-03-14T05:37:20;98056.97;;;10.25;87.03
61573;BME280;47465;43.094;12.434;2023-03-14T05:39:46;98063.03;;;10.28;86.97
61573;BME280;47465;43.094;12.434;2023-03-14T05:42:12;98065.69;;;10.30;87.81
61573;BME280;47465;43.094;12.434;2023-03-14T05:44:39;98072.50;;;10.37;86.70
61573;BME280;47465;43.094;12.434;2023-03-14T05:47:05;98089.84;;;10.47;86.92
61573;BME280;47465;43.094;12.434;2023-03-14T05:49:31;98091.69;;;10.45;87.18
61573;BME280;47465;43.094;12.434;2023-03-14T05:51:57;98090.38;;;10.32;87.65
61573;BME280;47465;43.094;12.434;2023-03-14T05:54:24;98088.44;;;10.37;87.53
61573;BME280;47465;43.094;12.434;2023-03-14T05:56:50;98080.63;;;10.33;88.01
61573;BME280;47465;43.094;12.434;2023-03-14T05:59:16;98084.28;;;10.30;88.74
61573;BME280;47465;43.094;12.434;2023-03-14T06:01:42;98112.28;;;10.62;84.92
61573;BME280;47465;43.094;12.434;2023-03-14T06:04:08;98085.06;;;10.56;84.47
61573;BME280;47465;43.094;12.434;2023-03-14T06:06:34;98110.44;;;10.88;82.79
61573;BME280;47465;43.094;12.434;2023-03-14T06:09:00;98060.13;;;10.82;81.84
61573;BME280;47465;43.094;12.434;2023-03-14T06:11:28;98067.34;;;11.02;82.00
61573;BME280;47465;43.094;12.434;2023-03-14T06:13:53;98035.66;;;11.18;82.11
61573;BME280;47465;43.094;12.434;2023-03-14T06:16:19;97935.38;;;10.98;82.76
61573;BME280;47465;43.094;12.434;2023-03-14T06:18:45;97889.47;;;10.93;83.55
61573;BME280;47465;43.094;12.434;2023-03-14T06:21:14;97913.25;;;10.75;84.10
61573;BME280;47465;43.094;12.434;2023-03-14T06:23:40;97953.56;;;10.64;84.79
61573;BME280;47465;43.094;12.434;2023-03-14T06:26:06;97975.72;;;10.65;84.56
61573;BME280;47465;43.094;12.434;2023-03-14T06:28:33;97926.88;;;10.45;85.61
61573;BME280;47465;43.094;12.434;2023-03-14T06:30:59;97918.44;;;10.34;86.15
61573;BME280;47465;43.094;12.434;2023-03-14T06:33:25;97951.94;;;10.38;86.33
61573;BME280;47465;43.094;12.434;2023-03-14T06:35:51;97974.88;;;10.41;86.29
61573;BME280;47465;43.094;12.434;2023-03-14T06:38:17;97990.06;;;10.61;85.55
61573;BME280;47465;43.094;12.434;2023-03-14T06:40:43;97967.91;;;10.60;83.94
61573;BME280;47465;43.094;12.434;2023-03-14T06:43:11;97970.03;;;10.74;83.96
61573;BME280;47465;43.094;12.434;2023-03-14T06:45:38;97965.28;;;10.82;83.82
61573;BME280;47465;43.094;12.434;2023-03-14T06:48:04;97979.09;;;10.90;83.57
61573;BME280;47465;43.094;12.434;2023-03-14T06:50:30;97992.84;;;11.02;83.49
61573;BME280;47465;43.094;12.434;2023-03-14T06:52:56;98000.06;;;11.20;83.07
61573;BME280;47465;43.094;12.434;2023-03-14T06:55:22;97971.53;;;11.24;81.62
61573;BME280;47465;43.094;12.434;2023-03-14T06:57:48;97960.66;;;11.49;79.46
61573;BME280;47465;43.094;12.434;2023-03-14T07:00:15;97948.69;;;11.59;78.68
61573;BME280;47465;43.094;12.434;2023-03-14T07:02:45;97963.56;;;11.84;78.38
61573;BME280;47465;43.094;12.434;2023-03-14T07:05:11;97957.59;;;11.99;76.13
61573;BME280;47465;43.094;12.434;2023-03-14T07:07:37;97945.28;;;12.16;73.48
61573;BME280;47465;43.094;12.434;2023-03-14T07:10:03;97941.75;;;12.34;72.92
61573;BME280;47465;43.094;12.434;2023-03-14T07:12:29;97926.16;;;12.44;73.41
61573;BME280;47465;43.094;12.434;2023-03-14T07:14:55;97928.03;;;12.61;72.37
61573;BME280;47465;43.094;12.434;2023-03-14T07:17:21;97945.47;;;12.85;71.89
61573;BME280;47465;43.094;12.434;2023-03-14T07:19:49;97919.13;;;12.97;70.27
61573;BME280;47465;43.094;12.434;2023-03-14T07:22:15;97900.00;;;13.06;70.21
61573;BME280;47465;43.094;12.434;2023-03-14T07:24:41;97901.47;;;13.11;69.95
61573;BME280;47465;43.094;12.434;2023-03-14T07:27:07;97884.13;;;13.03;69.13
61573;BME280;47465;43.094;12.434;2023-03-14T07:29:33;97903.31;;;13.28;69.18
61573;BME280;47465;43.094;12.434;2023-03-14T07:31:59;97874.22;;;13.22;68.90
61573;BME280;47465;43.094;12.434;2023-03-14T07:34:24;97899.75;;;13.45;68.28
61573;BME280;47465;43.094;12.434;2023-03-14T07:36:52;97907.75;;;13.63;66.91
61573;BME280;47465;43.094;12.434;2023-03-14T07:39:18;97901.78;;;13.91;66.46
61573;BME280;47465;43.094;12.434;2023-03-14T07:41:44;97886.66;;;13.90;65.27
61573;BME280;47465;43.094;12.434;2023-03-14T07:44:11;97891.72;;;14.12;64.64
61573;BME280;47465;43.094;12.434;2023-03-14T07:46:37;97878.28;;;14.29;63.68
61573;BME280;47465;43.094;12.434;2023-03-14T07:49:03;97883.25;;;14.51;62.61
61573;BME280;47465;43.094;12.434;2023-03-14T07:51:28;97895.59;;;14.86;62.25
61573;BME280;47465;43.094;12.434;2023-03-14T07:53:56;97913.19;;;14.90;60.61
61573;BME280;47465;43.094;12.434;2023-03-14T07:56:22;97892.66;;;15.05;60.46
61573;BME280;47465;43.094;12.434;2023-03-14T07:58:48;97883.50;;;15.09;59.66
61573;BME280;47465;43.094;12.434;2023-03-14T08:01:14;97872.63;;;15.12;59.54
61573;BME280;47465;43.094;12.434;2023-03-14T08:03:40;97859.97;;;14.99;58.61
61573;BME280;47465;43.094;12.434;2023-03-14T08:06:09;97840.28;;;15.15;58.91
61573;BME280;47465;43.094;12.434;2023-03-14T08:08:36;97839.69;;;14.95;59.13
61573;BME280;47465;43.094;12.434;2023-03-14T08:11:05;97829.97;;;14.78;60.08
61573;BME280;47465;43.094;12.434;2023-03-14T08:13:31;97868.19;;;14.96;60.06
61573;BME280;47465;43.094;12.434;2023-03-14T08:15:56;97849.34;;;14.68;58.92
61573;BME280;47465;43.094;12.434;2023-03-14T08:18:24;97849.88;;;14.43;59.60
61573;BME280;47465;43.094;12.434;2023-03-14T08:20:50;97875.06;;;14.38;60.01
61573;BME280;47465;43.094;12.434;2023-03-14T08:23:16;97847.88;;;13.98;60.90
61573;BME280;47465;43.094;12.434;2023-03-14T08:25:43;97857.97;;;13.77;61.86
61573;BME280;47465;43.094;12.434;2023-03-14T08:28:10;97852.69;;;13.60;61.99
61573;BME280;47465;43.094;12.434;2023-03-14T08:30:36;97848.94;;;13.47;62.18
61573;BME280;47465;43.094;12.434;2023-03-14T08:33:02;97854.59;;;13.41;62.41
61573;BME280;47465;43.094;12.434;2023-03-14T08:35:28;97872.19;;;13.78;61.95
61573;BME280;47465;43.094;12.434;2023-03-14T08:37:54;97873.25;;;14.23;60.01
61573;BME280;47465;43.094;12.434;2023-03-14T08:40:21;97855.56;;;14.68;60.09
61573;BME280;47465;43.094;12.434;2023-03-14T08:42:47;97872.78;;;14.94;58.88
61573;BME280;47465;43.094;12.434;2023-03-14T08:45:15;97871.94;;;15.08;57.25
61573;BME280;47465;43.094;12.434;2023-03-14T08:47:41;97901.22;;;15.56;56.85
61573;BME280;47465;43.094;12.434;2023-03-14T08:50:09;97889.47;;;15.87;55.21
61573;BME280;47465;43.094;12.434;2023-03-14T08:52:35;97877.44;;;15.94;52.64
61573;BME280;47465;43.094;12.434;2023-03-14T08:55:04;97855.47;;;16.02;52.18
61573;BME280;47465;43.094;12.434;2023-03-14T08:57:30;97861.88;;;16.14;51.73
61573;BME280;47465;43.094;12.434;2023-03-14T08:59:56;97857.22;;;16.03;51.55
61573;BME280;47465;43.094;12.434;2023-03-14T09:02:25;97865.88;;;16.35;50.64
61573;BME280;47465;43.094;12.434;2023-03-14T09:04:51;97874.41;;;16.28;51.36
61573;BME280;47465;43.094;12.434;2023-03-14T09:07:18;97856.53;;;15.99;51.71
61573;BME280;47465;43.094;12.434;2023-03-14T09:09:44;97833.25;;;15.57;53.16
61573;BME280;47465;43.094;12.434;2023-03-14T09:12:10;97826.75;;;15.47;53.23
61573;BME280;47465;43.094;12.434;2023-03-14T09:14:36;97826.38;;;15.38;54.11
61573;BME280;47465;43.094;12.434;2023-03-14T09:17:03;97821.56;;;15.44;54.26
61573;BME280;47465;43.094;12.434;2023-03-14T09:19:31;97822.56;;;15.86;53.98
61573;BME280;47465;43.094;12.434;2023-03-14T09:21:57;97812.78;;;15.99;53.37
61573;BME280;47465;43.094;12.434;2023-03-14T09:24:23;97816.16;;;15.88;53.73
61573;BME280;47465;43.094;12.434;2023-03-14T09:26:49;97820.66;;;15.73;53.49
61573;BME280;47465;43.094;12.434;2023-03-14T09:29:15;97833.06;;;15.60;54.83
61573;BME280;47465;43.094;12.434;2023-03-14T09:31:40;97832.50;;;15.40;55.76
61573;BME280;47465;43.094;12.434;2023-03-14T09:34:06;97813.88;;;15.09;56.83
61573;BME280;47465;43.094;12.434;2023-03-14T09:36:34;97817.13;;;14.99;57.37
61573;BME280;47465;43.094;12.434;2023-03-14T09:39:00;97828.41;;;14.90;58.10
61573;BME280;47465;43.094;12.434;2023-03-14T09:41:28;97821.91;;;14.64;59.08
61573;BME280;47465;43.094;12.434;2023-03-14T09:44:00;97821.53;;;14.54;60.89
61573;BME280;47465;43.094;12.434;2023-03-14T09:46:29;97827.34;;;14.47;61.64
61573;BME280;47465;43.094;12.434;2023-03-14T09:48:55;97841.75;;;14.44;63.31
61573;BME280;47465;43.094;12.434;2023-03-14T09:51:21;97836.41;;;14.28;64.51
61573;BME280;47465;43.094;12.434;2023-03-14T09:53:50;97823.66;;;14.17;65.15
61573;BME280;47465;43.094;12.434;2023-03-14T09:56:20;97815.03;;;14.12;67.84
61573;BME280;47465;43.094;12.434;2023-03-14T09:58:51;97807.44;;;14.05;69.61
61573;BME280;47465;43.094;12.434;2023-03-14T10:01:23;97810.63;;;14.11;70.15
61573;BME280;47465;43.094;12.434;2023-03-14T10:03:51;97798.13;;;13.96;71.32
61573;BME280;47465;43.094;12.434;2023-03-14T10:06:19;97825.03;;;14.09;72.68
61573;BME280;47465;43.094;12.434;2023-03-14T10:08:45;97784.19;;;13.91;73.01
61573;BME280;47465;43.094;12.434;2023-03-14T10:11:15;97772.28;;;13.81;74.21
61573;BME280;47465;43.094;12.434;2023-03-14T10:13:50;97787.00;;;13.88;74.61
61573;BME280;47465;43.094;12.434;2023-03-14T10:16:29;97774.88;;;13.82;75.33
61573;BME280;47465;43.094;12.434;2023-03-14T10:19:01;97794.78;;;13.92;75.17
61573;BME280;47465;43.094;12.434;2023-03-14T10:21:28;97781.66;;;13.88;76.08
61573;BME280;47465;43.094;12.434;2023-03-14T10:24:07;97788.66;;;13.90;76.49
61573;BME280;47465;43.094;12.434;2023-03-14T10:26:35;97782.63;;;13.87;77.26
61573;BME280;47465;43.094;12.434;2023-03-14T10:29:02;97758.56;;;13.87;77.17
61573;BME280;47465;43.094;12.434;2023-03-14T10:31:46;97764.63;;;13.90;78.40
61573;BME280;47465;43.094;12.434;2023-03-14T10:34:16;97758.31;;;13.91;78.95
61573;BME280;47465;43.094;12.434;2023-03-14T10:36:42;97748.41;;;13.93;79.47
61573;BME280;47465;43.094;12.434;2023-03-14T10:39:27;97713.47;;;13.96;79.21
61573;BME280;47465;43.094;12.434;2023-03-14T10:42:02;97723.97;;;14.15;79.33
61573;BME280;47465;43.094;12.434;2023-03-14T10:44:30;97698.13;;;14.00;79.79
61573;BME280;47465;43.094;12.434;2023-03-14T10:46:59;97688.41;;;13.99;79.80
61573;BME280;47465;43.094;12.434;2023-03-14T10:49:27;97705.50;;;14.11;79.78
61573;BME280;47465;43.094;12.434;2023-03-14T10:51:54;97710.94;;;14.09;80.25
61573;BME280;47465;43.094;12.434;2023-03-14T10:54:22;97693.53;;;14.02;80.57
61573;BME280;47465;43.094;12.434;2023-03-14T10:56:57;97716.41;;;14.08;81.95
61573;BME280;47465;43.094;12.434;2023-03-14T10:59:23;97696.06;;;13.89;82.59
61573;BME280;47465;43.094;12.434;2023-03-14T11:01:56;97703.53;;;13.98;82.28
61573;BME280;47465;43.094;12.434;2023-03-14T11:04:47;97719.06;;;13.92;82.69
61573;BME280;47465;43.094;12.434;2023-03-14T11:07:23;97720.03;;;13.91;82.74
61573;BME280;47465;43.094;12.434;2023-03-14T11:09:57;97707.03;;;13.85;83.88
61573;BME280;47465;43.094;12.434;2023-03-14T11:12:38;97704.03;;;13.75;84.66
61573;BME280;47465;43.094;12.434;2023-03-14T11:15:14;97687.38;;;13.70;85.48
61573;BME280;47465;43.094;12.434;2023-03-14T11:17:49;97693.34;;;13.75;86.16
61573;BME280;47465;43.094;12.434;2023-03-14T11:20:33;97675.53;;;13.90;85.44
61573;BME280;47465;43.094;12.434;2023-03-14T11:23:06;97650.31;;;13.80;85.54
61573;BME280;47465;43.094;12.434;2023-03-14T11:25:37;97638.66;;;13.81;85.89
61573;BME280;47465;43.094;12.434;2023-03-14T11:28:18;97655.56;;;13.81;86.21
61573;BME280;47465;43.094;12.434;2023-03-14T11:30:50;97648.78;;;13.75;86.43
61573;BME280;47465;43.094;12.434;2023-03-14T11:33:19;97668.25;;;13.77;87.29
61573;BME280;47465;43.094;12.434;2023-03-14T11:35:49;97648.03;;;13.58;88.58
61573;BME280;47465;43.094;12.434;2023-03-14T11:38:29;97633.03;;;13.55;88.50
61573;BME280;47465;43.094;12.434;2023-03-14T11:40:57;97651.72;;;13.71;88.16
61573;BME280;47465;43.094;12.434;2023-03-14T11:43:28;97634.13;;;13.51;88.63
61573;BME280;47465;43.094;12.434;2023-03-14T11:46:01;97630.34;;;13.55;88.73
61573;BME280;47465;43.094;12.434;2023-03-14T11:48:37;97629.69;;;13.51;90.03
61573;BME280;47465;43.094;12.434;2023-03-14T11:51:08;97632.00;;;13.42;90.23
61573;BME280;47465;43.094;12.434;2023-03-14T11:53:43;97633.56;;;13.46;90.58
61573;BME280;47465;43.094;12.434;2023-03-14T11:56:18;97624.94;;;13.41;90.80
61573;BME280;47465;43.094;12.434;2023-03-14T11:58:53;97610.06;;;13.37;90.36
61573;BME280;47465;43.094;12.434;2023-03-14T12:01:23;97622.88;;;13.46;91.08
61573;BME280;47465;43.094;12.434;2023-03-14T12:03:56;97597.44;;;13.23;91.87
61573;BME280;47465;43.094;12.434;2023-03-14T12:06:28;97618.41;;;13.30;92.20
61573;BME280;47465;43.094;12.434;2023-03-14T12:08:58;97604.59;;;13.22;91.87
61573;BME280;47465;43.094;12.434;2023-03-14T12:11:32;97605.56;;;13.21;91.60
61573;BME280;47465;43.094;12.434;2023-03-14T12:14:01;97579.13;;;13.17;92.03
61573;BME280;47465;43.094;12.434;2023-03-14T12:16:33;97587.97;;;13.17;92.71
61573;BME280;47465;43.094;12.434;2023-03-14T12:19:26;97597.53;;;13.21;93.18
61573;BME280;47465;43.094;12.434;2023-03-14T12:21:55;97555.53;;;13.09;92.98
61573;BME280;47465;43.094;12.434;2023-03-14T12:24:25;97554.66;;;13.08;93.04
61573;BME280;47465;43.094;12.434;2023-03-14T12:26:53;97547.50;;;13.09;93.43
61573;BME280;47465;43.094;12.434;2023-03-14T12:29:22;97557.16;;;13.11;93.76
61573;BME280;47465;43.094;12.434;2023-03-14T12:31:49;97543.28;;;13.05;94.07
61573;BME280;47465;43.094;12.434;2023-03-14T12:34:30;97546.47;;;13.11;94.09
61573;BME280;47465;43.094;12.434;2023-03-14T12:37:04;97529.16;;;13.03;94.58
61573;BME280;47465;43.094;12.434;2023-03-14T12:39:37;97540.00;;;13.15;94.81
61573;BME280;47465;43.094;12.434;2023-03-14T12:42:09;97526.00;;;13.12;94.71
61573;BME280;47465;43.094;12.434;2023-03-14T12:44:46;97510.50;;;13.03;95.14
61573;BME280;47465;43.094;12.434;2023-03-14T12:47:54;97506.13;;;13.02;95.56
61573;BME280;47465;43.094;12.434;2023-03-14T12:50:26;97528.22;;;13.20;95.54
61573;BME280;47465;43.094;12.434;2023-03-14T12:59:27;97479.94;;;13.08;96.31
61573;BME280;47465;43.094;12.434;2023-03-14T13:02:00;97475.44;;;13.09;96.24